Time;durP1;ratioP1;P1;durP2;ratioP2;P2;SDS_P1;SDS_P2;PMS_P1;PMS_P2;Temp;Humidity;BMP_temperature;BMP_pressure;BME280_temperature;BME280_humidity;BME280_pressure;Samples;Min_cycle;Max_cycle;Signal;HPM_P1;HPM_P2
2022/07/15 00:01:09;;;;;;;3.00;2.65;;;15.70;99.90;;;;;;5245876;28;20110;-72
2022/07/15 00:03:40;;;;;;;4.15;2.92;;;15.90;99.90;;;;;;5247594;28;20039;-72
2022/07/15 00:06:10;;;;;;;4.10;2.55;;;15.80;99.90;;;;;;5247827;28;20075;-72
2022/07/15 00:08:41;;;;;;;3.28;2.60;;;15.50;99.90;;;;;;5247412;28;20123;-72
2022/07/15 00:11:12;;;;;;;3.97;2.40;;;15.60;99.90;;;;;;5247341;28;20021;-72
2022/07/15 00:13:43;;;;;;;2.60;1.90;;;15.70;99.90;;;;;;5249840;28;20124;-72
2022/07/15 00:16:14;;;;;;;4.72;2.45;;;15.70;99.90;;;;;;5251761;28;20029;-72
2022/07/15 00:18:44;;;;;;;5.57;2.97;;;15.20;99.90;;;;;;5251778;28;20021;-72
2022/07/15 00:21:16;;;;;;;3.63;2.28;;;15.10;99.90;;;;;;5250466;28;20368;-72
2022/07/15 00:23:46;;;;;;;4.55;2.88;;;15.00;99.90;;;;;;5251453;28;20082;-72
2022/07/15 00:26:17;;;;;;;3.00;2.50;;;15.10;99.90;;;;;;5251550;28;20368;-72
2022/07/15 00:28:48;;;;;;;6.68;2.03;;;15.40;99.90;;;;;;5249803;28;20123;-72
2022/07/15 00:31:19;;;;;;;6.03;2.63;;;15.30;99.90;;;;;;5251272;28;20036;-72
2022/07/15 00:33:49;;;;;;;4.35;2.40;;;15.00;99.90;;;;;;5251131;28;20046;-72
2022/07/15 00:36:20;;;;;;;4.05;2.40;;;15.20;99.90;;;;;;5251247;28;20021;-71
2022/07/15 00:38:51;;;;;;;6.05;2.97;;;15.20;99.90;;;;;;5251036;28;20749;-72
2022/07/15 00:41:22;;;;;;;6.78;2.60;;;15.20;99.90;;;;;;5251036;28;20025;-72
2022/07/15 00:43:53;;;;;;;3.53;2.35;;;15.20;99.90;;;;;;5250941;28;20078;-72
2022/07/15 00:46:23;;;;;;;5.75;2.53;;;15.30;99.90;;;;;;5250900;28;20019;-72
2022/07/15 00:48:54;;;;;;;4.78;2.40;;;15.10;99.90;;;;;;5251057;28;20453;-72
2022/07/15 00:51:25;;;;;;;4.25;2.30;;;15.30;99.90;;;;;;5250743;28;20025;-72
2022/07/15 00:53:56;;;;;;;4.97;2.30;;;15.40;99.90;;;;;;5250559;28;20032;-72
2022/07/15 00:56:27;;;;;;;3.38;2.10;;;15.40;99.90;;;;;;5249383;28;20099;-72
2022/07/15 00:59:01;;;;;;;4.38;2.45;;;15.30;99.90;;;;;;5250712;28;20556;-72
2022/07/15 01:01:34;;;;;;;3.92;2.33;;;15.20;99.90;;;;;;5250315;28;20561;-72
2022/07/15 01:04:06;;;;;;;4.30;2.45;;;15.10;99.90;;;;;;5249271;28;20033;-72
2022/07/15 01:06:37;;;;;;;4.55;2.63;;;15.10;99.90;;;;;;5250434;28;20021;-72
2022/07/15 01:09:07;;;;;;;4.15;2.40;;;14.80;99.90;;;;;;5250374;28;20028;-71
2022/07/15 01:11:38;;;;;;;4.78;2.55;;;14.90;99.90;;;;;;5250384;28;20358;-71
2022/07/15 01:14:09;;;;;;;3.58;2.40;;;14.90;99.90;;;;;;5250307;28;20045;-72
2022/07/15 01:16:40;;;;;;;4.88;2.45;;;15.00;99.90;;;;;;5250283;28;20032;-72
2022/07/15 01:19:11;;;;;;;4.03;2.40;;;14.90;99.90;;;;;;5248967;28;20475;-72
2022/07/15 01:21:43;;;;;;;4.32;2.40;;;14.70;99.90;;;;;;5250142;28;20013;-72
2022/07/15 01:24:14;;;;;;;4.63;2.60;;;14.90;99.90;;;;;;5250113;28;20021;-72
2022/07/15 01:26:45;;;;;;;2.95;2.20;;;14.90;99.90;;;;;;5250003;28;20558;-72
2022/07/15 01:29:15;;;;;;;3.60;2.40;;;15.00;99.90;;;;;;5250050;28;20025;-74
2022/07/15 01:31:46;;;;;;;2.95;2.20;;;14.80;99.90;;;;;;5249696;28;20392;-72
2022/07/15 01:34:17;;;;;;;4.22;2.25;;;15.00;99.90;;;;;;5249804;28;20109;-71
2022/07/15 01:36:48;;;;;;;6.22;2.33;;;15.10;99.90;;;;;;5249880;28;20029;-72
2022/07/15 01:39:19;;;;;;;4.40;2.15;;;15.10;99.90;;;;;;5249732;28;20063;-73
2022/07/15 01:41:49;;;;;;;3.70;2.20;;;14.90;99.90;;;;;;5249714;28;20031;-72
2022/07/15 01:44:20;;;;;;;4.90;2.30;;;15.00;99.90;;;;;;5249837;28;20353;-80
2022/07/15 01:46:51;;;;;;;3.20;1.77;;;15.20;99.90;;;;;;5249678;28;20056;-72
2022/07/15 01:49:22;;;;;;;3.33;1.83;;;15.40;99.90;;;;;;5248068;28;20117;-72
2022/07/15 01:51:54;;;;;;;4.03;2.20;;;15.00;99.90;;;;;;5248142;28;20035;-72
2022/07/15 01:54:27;;;;;;;3.78;2.03;;;14.60;99.90;;;;;;5249506;28;20036;-71
2022/07/15 01:56:58;;;;;;;3.60;2.00;;;14.70;99.90;;;;;;5249355;28;20063;-72
2022/07/15 01:59:29;;;;;;;4.80;2.35;;;14.50;99.90;;;;;;5249334;28;20024;-77
2022/07/15 02:02:00;;;;;;;7.63;2.70;;;14.70;99.90;;;;;;5247794;28;20468;-71
2022/07/15 02:04:31;;;;;;;3.35;2.13;;;14.40;99.90;;;;;;5249543;28;20106;-72
2022/07/15 02:07:03;;;;;;;5.10;2.40;;;14.70;99.90;;;;;;5249363;28;20494;-79
2022/07/15 02:09:34;;;;;;;3.88;2.10;;;14.90;99.90;;;;;;5249382;28;20107;-72
2022/07/15 02:12:06;;;;;;;3.08;1.92;;;14.80;99.90;;;;;;5249009;28;20017;-73
2022/07/15 02:14:36;;;;;;;3.65;2.20;;;14.90;99.90;;;;;;5248949;28;20040;-72
2022/07/15 02:17:07;;;;;;;3.92;2.00;;;14.70;99.90;;;;;;5249071;28;20032;-72
2022/07/15 02:19:38;;;;;;;2.00;1.80;;;14.60;99.90;;;;;;5248885;28;20029;-71
2022/07/15 02:22:09;;;;;;;4.25;2.10;;;14.20;99.90;;;;;;5248879;28;20043;-72
2022/07/15 02:24:40;;;;;;;4.75;2.30;;;14.50;99.90;;;;;;5247619;28;20034;-72
2022/07/15 02:27:10;;;;;;;3.03;1.83;;;14.70;99.90;;;;;;5248737;28;20098;-72
2022/07/15 02:29:41;;;;;;;2.60;1.92;;;15.00;99.90;;;;;;5248577;28;20029;-72
2022/07/15 02:32:12;;;;;;;2.70;2.00;;;14.70;99.90;;;;;;5248465;28;20028;-77
2022/07/15 02:34:43;;;;;;;4.28;2.08;;;14.70;99.90;;;;;;5248077;28;20473;-72
2022/07/15 02:37:14;;;;;;;3.15;2.00;;;14.80;99.90;;;;;;5248624;28;20042;-72
2022/07/15 02:39:44;;;;;;;4.28;2.20;;;14.80;99.90;;;;;;5248661;28;20111;-72
2022/07/15 02:42:15;;;;;;;2.08;1.75;;;14.80;99.90;;;;;;5247350;28;20477;-72
2022/07/15 02:44:46;;;;;;;3.35;2.20;;;14.60;99.90;;;;;;5248399;28;20111;-73
2022/07/15 02:47:17;;;;;;;2.17;1.70;;;14.60;99.90;;;;;;5248395;28;20549;-72
2022/07/15 02:49:47;;;;;;;3.83;2.20;;;14.80;99.90;;;;;;5248387;28;20108;-72
2022/07/15 02:52:18;;;;;;;4.95;1.95;;;14.30;99.90;;;;;;5248069;28;20033;-72
2022/07/15 02:54:49;;;;;;;4.97;2.30;;;14.20;99.90;;;;;;5247042;28;20468;-79
2022/07/15 02:57:20;;;;;;;4.22;2.33;;;14.40;99.90;;;;;;5248040;28;20487;-72
2022/07/15 02:59:51;;;;;;;4.93;2.50;;;14.40;99.90;;;;;;5247830;28;20478;-71
2022/07/15 03:02:22;;;;;;;5.32;2.03;;;14.70;99.90;;;;;;5248106;28;20540;-72
2022/07/15 03:04:53;;;;;;;4.43;2.10;;;14.50;99.90;;;;;;5248091;28;20024;-72
2022/07/15 03:07:24;;;;;;;5.63;2.45;;;14.60;99.90;;;;;;5246620;28;20029;-72
2022/07/15 03:09:55;;;;;;;3.83;1.60;;;15.00;99.90;;;;;;5263576;28;20028;-72
2022/07/15 03:12:26;;;;;;;5.28;2.22;;;15.00;99.90;;;;;;5247835;28;20103;-72
2022/07/15 03:14:57;;;;;;;4.40;1.90;;;14.60;99.90;;;;;;5247951;28;20116;-72
2022/07/15 03:17:28;;;;;;;3.10;2.35;;;14.50;99.90;;;;;;5247819;28;20099;-73
2022/07/15 03:19:59;;;;;;;3.83;1.92;;;14.30;99.90;;;;;;5247897;28;20154;-72
2022/07/15 03:22:30;;;;;;;6.10;2.38;;;14.40;99.90;;;;;;5247729;28;20016;-72
2022/07/15 03:25:01;;;;;;;4.65;1.83;;;14.40;99.90;;;;;;5246589;28;20122;-72
2022/07/15 03:27:32;;;;;;;2.97;2.00;;;14.50;99.90;;;;;;5247523;28;20017;-71
2022/07/15 03:30:03;;;;;;;4.80;1.90;;;14.40;99.90;;;;;;5247634;28;20033;-72
2022/07/15 03:32:33;;;;;;;3.67;2.20;;;14.80;99.90;;;;;;5247362;28;20033;-72
2022/07/15 03:35:05;;;;;;;2.65;2.35;;;14.50;99.90;;;;;;5247557;28;20036;-72
2022/07/15 03:37:36;;;;;;;3.20;2.00;;;14.70;99.90;;;;;;5247628;28;20044;-72
2022/07/15 03:40:07;;;;;;;3.15;1.90;;;14.80;99.90;;;;;;5247447;28;20116;-73
2022/07/15 03:42:38;;;;;;;4.68;1.80;;;14.90;99.90;;;;;;5247389;28;20016;-73
2022/07/15 03:45:09;;;;;;;3.05;1.90;;;14.90;99.90;;;;;;5247379;28;20028;-72
2022/07/15 03:47:40;;;;;;;3.40;2.05;;;15.00;99.90;;;;;;5246600;28;20020;-72
2022/07/15 03:50:11;;;;;;;4.15;2.20;;;15.10;99.90;;;;;;5247215;28;20026;-72
2022/07/15 03:52:42;;;;;;;2.38;1.85;;;15.00;99.90;;;;;;5245858;28;20395;-72
2022/07/15 03:55:13;;;;;;;5.10;2.17;;;15.10;99.90;;;;;;5247260;28;20028;-72
2022/07/15 03:57:44;;;;;;;2.80;1.60;;;15.10;99.90;;;;;;5247205;28;20028;-72
2022/07/15 04:00:15;;;;;;;3.55;1.80;;;15.20;99.90;;;;;;5246870;28;20052;-72
2022/07/15 04:02:45;;;;;;;2.50;1.92;;;15.30;99.90;;;;;;5247086;28;20067;-72
2022/07/15 04:05:16;;;;;;;2.70;1.92;;;15.40;99.90;;;;;;5247269;28;20052;-72
2022/07/15 04:07:47;;;;;;;3.58;1.65;;;15.70;99.90;;;;;;5247188;28;20030;-73
2022/07/15 04:10:18;;;;;;;2.63;1.80;;;15.70;99.90;;;;;;5247143;28;20028;-72
2022/07/15 04:12:49;;;;;;;2.60;2.10;;;16.10;99.90;;;;;;5245928;28;20388;-73
2022/07/15 04:15:20;;;;;;;3.53;1.50;;;16.00;99.90;;;;;;5247142;28;20472;-72
2022/07/15 04:17:50;;;;;;;2.28;2.00;;;16.50;99.90;;;;;;5247139;28;20460;-73
2022/07/15 04:20:22;;;;;;;2.58;1.50;;;16.50;99.90;;;;;;5247008;28;20086;-72
2022/07/15 04:22:53;;;;;;;3.42;2.08;;;16.40;99.90;;;;;;5247170;28;20032;-77
2022/07/15 04:25:24;;;;;;;2.20;1.67;;;16.30;99.90;;;;;;5247133;28;20043;-72
2022/07/15 04:27:55;;;;;;;3.45;1.77;;;16.90;99.90;;;;;;5247000;28;20025;-73
2022/07/15 04:30:26;;;;;;;4.07;1.73;;;17.00;99.90;;;;;;5246831;28;20020;-72
2022/07/15 04:32:57;;;;;;;3.75;1.60;;;17.10;99.90;;;;;;5246788;28;20498;-72
2022/07/15 04:35:27;;;;;;;3.83;2.10;;;17.30;99.90;;;;;;5246891;28;20024;-77
2022/07/15 04:37:58;;;;;;;2.33;1.58;;;17.30;99.90;;;;;;5245721;28;20054;-72
2022/07/15 04:40:29;;;;;;;5.20;1.90;;;17.60;99.90;;;;;;5246949;28;20028;-73
2022/07/15 04:43:00;;;;;;;1.50;1.40;;;17.70;99.90;;;;;;5246910;28;20029;-73
2022/07/15 04:45:31;;;;;;;2.50;1.40;;;17.80;99.90;;;;;;5245571;28;20025;-73
2022/07/15 04:48:02;;;;;;;1.52;1.40;;;18.10;99.90;;;;;;5246740;28;20046;-73
2022/07/15 04:50:53;;;;;;;2.17;1.40;;;18.10;99.90;;;;;;5246763;28;20023;-72
2022/07/15 04:53:24;;;;;;;3.38;1.60;;;18.60;99.90;;;;;;5246519;28;20113;-72
2022/07/15 04:55:55;;;;;;;3.50;2.13;;;19.00;99.90;;;;;;5246657;28;20013;-73
2022/07/15 04:58:26;;;;;;;2.72;1.50;;;19.10;99.90;;;;;;5248281;28;20372;-72
2022/07/15 05:00:57;;;;;;;3.10;1.42;;;19.50;99.90;;;;;;5250325;28;20774;-73
2022/07/15 05:03:27;;;;;;;3.58;1.25;;;19.90;99.90;;;;;;5249142;28;20036;-75
2022/07/15 05:05:58;;;;;;;2.90;1.90;;;20.30;99.90;;;;;;5250420;28;20017;-72
2022/07/15 05:08:29;;;;;;;5.70;1.90;;;20.30;99.90;;;;;;5250352;28;20029;-73
2022/07/15 05:11:00;;;;;;;5.68;2.50;;;20.70;99.90;;;;;;5250519;28;20746;-79
2022/07/15 05:13:31;;;;;;;8.38;4.47;;;20.70;99.90;;;;;;5250131;28;20090;-73
2022/07/15 05:16:02;;;;;;;8.43;4.32;;;20.70;99.90;;;;;;5250374;28;20127;-73
2022/07/15 05:18:33;;;;;;;12.13;5.93;;;20.90;99.90;;;;;;5250191;28;20100;-73
2022/07/15 05:21:04;;;;;;;10.07;5.78;;;21.60;99.90;;;;;;5248860;28;20029;-73
2022/07/15 05:23:35;;;;;;;9.85;5.65;;;21.40;99.90;;;;;;5250176;28;20095;-73
2022/07/15 05:26:06;;;;;;;13.77;6.28;;;21.70;99.90;;;;;;5250097;28;20403;-73
2022/07/15 05:28:39;;;;;;;16.75;5.18;;;21.80;99.90;;;;;;5249881;28;20025;-73
2022/07/15 05:31:09;;;;;;;13.63;5.60;;;21.70;99.90;;;;;;5249885;28;20028;-72
2022/07/15 05:33:40;;;;;;;9.07;4.03;;;22.00;99.90;;;;;;5249852;28;20043;-72
2022/07/15 05:36:13;;;;;;;9.18;4.30;;;22.40;99.90;;;;;;5248280;28;20035;-73
2022/07/15 05:38:44;;;;;;;6.07;2.22;;;22.30;99.90;;;;;;5249858;28;20095;-72
2022/07/15 05:41:15;;;;;;;5.25;2.58;;;22.70;99.90;;;;;;5249873;28;20036;-73
2022/07/15 05:43:45;;;;;;;5.43;2.00;;;23.20;99.90;;;;;;5249794;28;20033;-73
2022/07/15 05:46:16;;;;;;;6.18;2.20;;;23.30;99.90;;;;;;5249776;28;20357;-73
2022/07/15 05:48:47;;;;;;;7.60;2.20;;;23.30;99.90;;;;;;5249360;28;20021;-74
2022/07/15 05:51:18;;;;;;;5.55;2.00;;;23.60;99.90;;;;;;5249548;28;20035;-74
2022/07/15 05:53:49;;;;;;;6.55;1.83;;;23.60;99.90;;;;;;5249499;28;20029;-73
2022/07/15 05:56:20;;;;;;;5.38;1.50;;;23.50;99.90;;;;;;5248096;28;20025;-74
2022/07/15 05:58:50;;;;;;;4.50;1.40;;;23.60;99.90;;;;;;5249590;28;20024;-75
2022/07/15 06:01:22;;;;;;;6.80;2.03;;;23.60;99.90;;;;;;5264652;28;20041;-73
2022/07/15 06:03:53;;;;;;;3.95;1.70;;;23.70;99.90;;;;;;5265020;28;20040;-72
2022/07/15 06:06:24;;;;;;;3.60;1.27;;;24.10;99.90;;;;;;5249355;28;20028;-72
2022/07/15 06:08:55;;;;;;;6.10;1.80;;;23.80;99.90;;;;;;5249002;28;20082;-72
2022/07/15 06:11:25;;;;;;;2.80;1.23;;;23.90;99.90;;;;;;5248566;28;20441;-73
2022/07/15 06:13:56;;;;;;;4.57;1.67;;;24.20;99.90;;;;;;5249137;28;20032;-73
2022/07/15 06:16:27;;;;;;;3.60;1.50;;;24.10;99.90;;;;;;5249222;28;20073;-77
2022/07/15 06:18:59;;;;;;;4.28;1.30;;;24.30;99.90;;;;;;5249166;28;20036;-72
2022/07/15 06:21:30;;;;;;;3.53;1.27;;;24.10;99.90;;;;;;5249116;28;20017;-82
2022/07/15 06:24:01;;;;;;;6.07;1.38;;;24.20;99.90;;;;;;5247457;28;20013;-73
2022/07/15 06:26:31;;;;;;;3.30;1.38;;;24.00;99.90;;;;;;5248818;28;20029;-73
2022/07/15 06:29:02;;;;;;;3.90;1.40;;;24.00;99.90;;;;;;5248875;28;20082;-72
2022/07/15 06:31:34;;;;;;;6.53;1.33;;;24.10;99.90;;;;;;5248518;28;20032;-73
2022/07/15 06:34:04;;;;;;;2.22;1.13;;;24.30;99.90;;;;;;5248598;28;20032;-72
2022/07/15 06:36:36;;;;;;;3.30;0.90;;;24.20;99.90;;;;;;5247372;28;20483;-72
2022/07/15 06:39:07;;;;;;;3.90;1.15;;;24.20;99.90;;;;;;5247508;28;20476;-72
2022/07/15 06:41:38;;;;;;;1.83;0.80;;;24.10;99.90;;;;;;5264246;28;20090;-72
2022/07/15 06:44:08;;;;;;;2.83;0.75;;;24.60;99.90;;;;;;5248699;28;20036;-72
2022/07/15 06:46:39;;;;;;;3.78;1.17;;;24.30;99.90;;;;;;5248584;28;20040;-73
2022/07/15 06:49:10;;;;;;;3.88;1.27;;;24.60;99.90;;;;;;5248494;28;20032;-77
2022/07/15 06:51:41;;;;;;;5.88;1.30;;;24.80;99.90;;;;;;5248379;28;20051;-73
2022/07/15 06:54:12;;;;;;;4.05;1.50;;;25.00;99.90;;;;;;5248279;28;20557;-73
2022/07/15 06:56:43;;;;;;;4.75;1.00;;;25.00;99.90;;;;;;5246963;28;20025;-72
2022/07/15 06:59:14;;;;;;;6.13;1.20;;;24.80;99.90;;;;;;5248304;28;20028;-73
2022/07/15 07:01:45;;;;;;;3.05;1.50;;;24.60;99.90;;;;;;5248054;28;20131;-79
2022/07/15 07:04:16;;;;;;;4.38;1.77;;;24.80;99.90;;;;;;5248141;28;20078;-72
2022/07/15 07:06:46;;;;;;;3.72;1.23;;;25.40;99.90;;;;;;5248170;28;20024;-82
2022/07/15 07:09:18;;;;;;;2.60;1.02;;;25.50;99.90;;;;;;5247918;28;20425;-73
2022/07/15 07:11:48;;;;;;;2.35;0.88;;;25.60;99.90;;;;;;5247971;28;20090;-73
2022/07/15 07:14:19;;;;;;;3.97;1.30;;;25.30;99.90;;;;;;5247986;28;20044;-73
2022/07/15 07:16:50;;;;;;;2.90;0.95;;;25.20;99.90;;;;;;5246698;28;20020;-72
2022/07/15 07:19:21;;;;;;;2.70;0.85;;;25.20;99.90;;;;;;5247846;28;20025;-72
2022/07/15 07:21:52;;;;;;;4.68;1.23;;;24.90;99.90;;;;;;5247470;28;20017;-73
2022/07/15 07:24:23;;;;;;;3.53;0.90;;;24.70;99.90;;;;;;5247782;28;20031;-73
2022/07/15 07:26:53;;;;;;;3.97;0.70;;;24.70;99.90;;;;;;5247747;28;20028;-73
2022/07/15 07:29:25;;;;;;;1.83;0.88;;;24.40;99.90;;;;;;5247899;28;20027;-79
2022/07/15 07:31:55;;;;;;;4.20;1.75;;;24.30;99.90;;;;;;5247508;28;20036;-72
2022/07/15 07:34:26;;;;;;;8.35;1.40;;;24.80;99.90;;;;;;5246202;28;20570;-74
2022/07/15 07:36:57;;;;;;;2.08;1.10;;;24.40;99.90;;;;;;5247730;28;20026;-72
2022/07/15 07:39:28;;;;;;;5.25;1.05;;;24.70;99.90;;;;;;5247631;28;20078;-73
2022/07/15 07:41:59;;;;;;;4.30;1.48;;;24.50;99.90;;;;;;5247571;28;20017;-72
2022/07/15 07:44:29;;;;;;;1.88;0.80;;;24.80;99.90;;;;;;5247628;28;20025;-73
2022/07/15 07:47:00;;;;;;;4.43;1.38;;;24.60;99.90;;;;;;5247544;28;20028;-73
2022/07/15 07:49:31;;;;;;;5.45;1.10;;;24.50;99.90;;;;;;5247489;28;20025;-73
2022/07/15 07:52:03;;;;;;;7.28;1.00;;;24.70;99.90;;;;;;5247279;28;20032;-73
2022/07/15 07:54:34;;;;;;;5.10;1.35;;;24.70;99.90;;;;;;5247279;28;20025;-72
2022/07/15 07:57:05;;;;;;;1.70;1.30;;;24.80;99.90;;;;;;5247431;28;20037;-72
2022/07/15 07:59:36;;;;;;;4.10;1.13;;;24.80;99.90;;;;;;5247325;28;20028;-77
2022/07/15 08:02:07;;;;;;;7.55;1.98;;;25.40;99.90;;;;;;5247263;28;20093;-73
2022/07/15 08:04:40;;;;;;;4.97;1.10;;;25.60;99.90;;;;;;5247337;28;20458;-73
2022/07/15 08:07:11;;;;;;;3.35;1.05;;;25.10;99.90;;;;;;5247339;28;20032;-72
2022/07/15 08:09:42;;;;;;;3.13;1.00;;;24.90;99.90;;;;;;5247300;28;20029;-73
2022/07/15 08:12:13;;;;;;;4.28;1.42;;;24.90;99.90;;;;;;5247123;28;20435;-73
2022/07/15 08:14:44;;;;;;;5.55;1.55;;;24.80;99.90;;;;;;5247159;28;20037;-73
2022/07/15 08:17:16;;;;;;;6.65;1.77;;;25.00;99.90;;;;;;5247075;28;20093;-73
2022/07/15 08:19:46;;;;;;;4.68;2.17;;;25.40;99.90;;;;;;5247195;28;20036;-73
2022/07/15 08:22:18;;;;;;;4.50;1.20;;;25.40;99.90;;;;;;5247111;28;20032;-73
2022/07/15 08:24:49;;;;;;;6.88;1.65;;;25.50;99.90;;;;;;5247103;28;20029;-72
2022/07/15 08:27:20;;;;;;;3.00;1.00;;;26.40;99.90;;;;;;5246919;28;20021;-77
2022/07/15 08:29:51;;;;;;;3.15;1.20;;;26.20;99.90;;;;;;5247073;28;20036;-72
2022/07/15 08:32:22;;;;;;;4.85;1.02;;;26.30;99.90;;;;;;5246847;28;20036;-72
2022/07/15 08:34:53;;;;;;;3.08;1.23;;;26.30;99.90;;;;;;5251108;28;20021;-74
2022/07/15 08:37:26;;;;;;;4.30;1.42;;;26.60;99.90;;;;;;5251072;28;20013;-73
2022/07/15 08:39:57;;;;;;;3.45;1.10;;;26.70;99.90;;;;;;5251079;28;20036;-73
2022/07/15 08:42:28;;;;;;;2.35;0.95;;;26.40;99.90;;;;;;5250977;28;20415;-73
2022/07/15 08:44:59;;;;;;;4.78;1.45;;;27.00;99.90;;;;;;5250970;28;20024;-73
2022/07/15 08:47:32;;;;;;;1.75;0.70;;;27.20;99.90;;;;;;5251033;28;20025;-74
2022/07/15 08:50:03;;;;;;;5.15;0.77;;;27.30;99.90;;;;;;5250851;28;20055;-73
2022/07/15 08:52:36;;;;;;;2.13;1.15;;;26.70;99.90;;;;;;5250656;28;20035;-73
2022/07/15 08:55:07;;;;;;;2.33;0.80;;;27.30;99.90;;;;;;5250779;28;20482;-76
2022/07/15 08:57:39;;;;;;;3.88;1.10;;;27.80;99.90;;;;;;5250760;28;20017;-74
2022/07/15 09:00:10;;;;;;;3.53;1.10;;;27.40;99.90;;;;;;5250418;28;20052;-72
2022/07/15 09:02:42;;;;;;;4.28;1.33;;;26.80;99.90;;;;;;5250466;28;20480;-72
2022/07/15 09:05:36;;;;;;;3.72;1.60;;;26.90;99.90;;;;;;5250454;28;20024;-72
2022/07/15 09:08:11;;;;;;;7.38;1.23;;;27.40;99.90;;;;;;5250577;28;20086;-72
2022/07/15 09:10:56;;;;;;;4.45;1.20;;;27.40;99.90;;;;;;5250637;28;20036;-72
2022/07/15 09:13:32;;;;;;;4.47;1.23;;;26.90;99.90;;;;;;5250276;28;20044;-73
2022/07/15 09:16:08;;;;;;;3.67;1.50;;;26.40;99.90;;;;;;5250367;28;20507;-74
2022/07/15 09:18:44;;;;;;;5.63;1.48;;;26.60;99.90;;;;;;5250351;28;20468;-72
2022/07/15 09:21:18;;;;;;;5.60;1.38;;;27.00;99.90;;;;;;5250291;28;20020;-72
2022/07/15 09:23:50;;;;;;;4.68;1.80;;;26.40;99.90;;;;;;5250357;28;20032;-71
2022/07/15 09:26:27;;;;;;;7.05;1.65;;;25.80;99.90;;;;;;5250020;28;20033;-72
2022/07/15 09:28:59;;;;;;;4.15;1.52;;;26.50;99.90;;;;;;5250374;28;20038;-73
2022/07/15 09:34:23;;;;;;;3.88;1.02;;;26.00;99.90;;;;;;5250180;28;20055;-76
2022/07/15 09:36:55;;;;;;;6.93;1.70;;;26.50;99.90;;;;;;5249992;28;20578;-72
2022/07/15 09:39:26;;;;;;;3.80;1.30;;;26.10;99.90;;;;;;5250230;28;20511;-72
2022/07/15 09:42:06;;;;;;;3.83;1.00;;;25.90;99.90;;;;;;5250143;28;20025;-72
2022/07/15 09:44:37;;;;;;;3.70;1.20;;;26.80;99.90;;;;;;5248829;28;20380;-72
2022/07/15 09:47:19;;;;;;;5.95;1.50;;;26.50;99.90;;;;;;5249825;28;20031;-72
2022/07/15 09:49:50;;;;;;;7.95;1.67;;;26.60;99.90;;;;;;5249837;28;20025;-73
2022/07/15 09:52:21;;;;;;;6.45;1.30;;;26.50;99.90;;;;;;5249773;28;20025;-72
2022/07/15 09:54:53;;;;;;;3.42;1.60;;;26.60;99.90;;;;;;5249814;28;20483;-72
2022/07/15 09:57:24;;;;;;;3.63;1.40;;;26.60;99.90;;;;;;5249861;28;20122;-72
2022/07/15 09:59:55;;;;;;;2.70;1.20;;;26.30;99.90;;;;;;5249412;28;20096;-72
2022/07/15 10:02:27;;;;;;;6.70;1.17;;;26.80;99.90;;;;;;5249730;28;20116;-73
2022/07/15 10:04:57;;;;;;;4.28;1.10;;;26.70;99.90;;;;;;5249711;28;20380;-72
2022/07/15 10:07:28;;;;;;;5.00;1.10;;;26.20;99.90;;;;;;5249635;28;20017;-72
2022/07/15 10:10:01;;;;;;;2.47;0.90;;;27.30;99.90;;;;;;5249561;28;20033;-72
2022/07/15 10:12:54;;;;;;;4.82;1.30;;;26.50;99.90;;;;;;5249424;28;20036;-73
2022/07/15 10:16:06;;;;;;;5.07;1.15;;;26.40;99.90;;;;;;5249496;28;20385;-73
2022/07/15 10:18:44;;;;;;;3.67;1.65;;;26.10;99.90;;;;;;5226243;28;20040;-73
2022/07/15 10:21:50;;;;;;;2.72;1.25;;;27.00;99.90;;;;;;5249310;28;20024;-72
2022/07/15 10:25:08;;;;;;;5.15;1.10;;;27.00;99.90;;;;;;5233045;28;20048;-72
2022/07/15 10:27:42;;;;;;;6.10;2.03;;;26.40;99.90;;;;;;5217413;28;20041;-72
2022/07/15 10:30:19;;;;;;;2.20;1.27;;;26.20;99.90;;;;;;5248963;28;20733;-73
2022/07/15 10:33:10;;;;;;;3.75;1.10;;;26.20;99.90;;;;;;5248950;28;20033;-72
2022/07/15 10:35:44;;;;;;;4.05;1.10;;;26.30;99.90;;;;;;5249200;28;20403;-73
2022/07/15 10:38:33;;;;;;;2.70;1.30;;;26.60;99.90;;;;;;5249161;28;20032;-72
2022/07/15 10:41:06;;;;;;;2.53;1.27;;;26.70;99.90;;;;;;5249023;28;20530;-73
2022/07/15 10:43:38;;;;;;;3.40;1.33;;;26.90;99.90;;;;;;5247477;28;20722;-73
2022/07/15 10:46:18;;;;;;;2.10;1.35;;;27.30;99.90;;;;;;5248857;28;20036;-73
2022/07/15 10:48:52;;;;;;;3.70;1.80;;;27.10;99.90;;;;;;5248835;28;20422;-72
2022/07/15 10:51:46;;;;;;;2.35;0.95;;;27.30;99.90;;;;;;5248643;28;20028;-72
2022/07/15 10:54:17;;;;;;;3.65;1.52;;;27.00;99.90;;;;;;5242935;28;20499;-72
2022/07/15 10:56:49;;;;;;;3.00;1.20;;;26.80;99.90;;;;;;5248001;28;20036;-72
2022/07/15 10:59:24;;;;;;;3.15;1.60;;;26.80;99.90;;;;;;5248377;28;20085;-73
2022/07/15 11:01:58;;;;;;;6.65;1.77;;;28.00;99.90;;;;;;5248221;28;20218;-72
2022/07/15 11:04:32;;;;;;;5.97;1.45;;;27.40;99.90;;;;;;5248579;28;20025;-79
2022/07/15 11:07:03;;;;;;;5.35;0.95;;;27.30;99.90;;;;;;5248292;28;20024;-72
2022/07/15 11:09:48;;;;;;;6.78;1.35;;;26.60;99.90;;;;;;5248095;28;20480;-73
2022/07/15 11:12:22;;;;;;;4.45;1.63;;;26.30;99.90;;;;;;5247865;28;20468;-72
2022/07/15 11:15:04;;;;;;;5.25;1.48;;;26.90;99.90;;;;;;5248036;28;20028;-73
2022/07/15 11:17:35;;;;;;;2.28;1.20;;;27.00;99.90;;;;;;5246805;28;20024;-72
2022/07/15 11:20:14;;;;;;;2.45;1.13;;;27.10;99.90;;;;;;5247832;28;20075;-72
2022/07/15 11:22:48;;;;;;;4.60;1.08;;;26.50;99.90;;;;;;5247670;28;20032;-72
2022/07/15 11:25:31;;;;;;;3.78;1.20;;;26.30;99.90;;;;;;5246442;28;20033;-72
2022/07/15 11:28:07;;;;;;;5.13;1.20;;;26.30;99.90;;;;;;5247919;28;20012;-72
2022/07/15 11:30:53;;;;;;;3.65;0.98;;;26.90;99.90;;;;;;5248150;28;20086;-74
2022/07/15 11:33:29;;;;;;;2.42;0.95;;;27.40;99.90;;;;;;5247486;28;20044;-73
2022/07/15 11:36:02;;;;;;;5.07;1.10;;;27.80;99.90;;;;;;5247640;28;20024;-73
2022/07/15 11:38:38;;;;;;;3.90;0.95;;;28.20;99.90;;;;;;5247595;28;20020;-79
2022/07/15 11:46:59;;;;;;;6.13;1.48;;;27.40;99.90;;;;;;5247775;28;20081;-72
2022/07/15 11:49:31;;;;;;;1.38;0.90;;;27.50;99.90;;;;;;5247426;28;20020;-72
2022/07/15 11:52:04;;;;;;;8.57;1.23;;;27.20;99.90;;;;;;5247378;28;20051;-72
2022/07/15 11:54:37;;;;;;;3.55;1.10;;;27.40;99.90;;;;;;5247403;28;20043;-72
2022/07/15 11:57:13;;;;;;;3.50;1.08;;;27.10;99.90;;;;;;5247164;28;20043;-73
2022/07/15 11:59:55;;;;;;;4.63;1.15;;;28.00;99.90;;;;;;5246959;28;20394;-77
2022/07/15 12:02:28;;;;;;;2.45;0.93;;;27.40;99.90;;;;;;5247508;28;20522;-72
2022/07/15 12:05:07;;;;;;;3.60;1.10;;;26.40;99.90;;;;;;5245839;28;20491;-76
2022/07/15 12:07:42;;;;;;;;;;;27.00;99.90;;;;;;5246897;28;20043;-72
2022/07/15 12:10:14;;;;;;;5.70;1.30;;;26.70;99.90;;;;;;5247283;28;19904;-73
2022/07/15 12:12:56;;;;;;;2.92;1.08;;;26.80;99.90;;;;;;5245793;28;20024;-73
2022/07/15 12:15:29;;;;;;;4.78;1.50;;;26.80;99.90;;;;;;5247249;28;20495;-72
2022/07/15 12:18:00;;;;;;;7.85;1.23;;;26.40;99.90;;;;;;5247133;28;20106;-72
2022/07/15 12:20:31;;;;;;;3.22;1.08;;;26.70;99.90;;;;;;5247150;28;20464;-72
2022/07/15 12:23:10;;;;;;;3.33;1.10;;;27.20;99.90;;;;;;5247048;28;20043;-72
2022/07/15 12:25:40;;;;;;;4.72;1.20;;;27.30;99.90;;;;;;5247154;28;20047;-73
2022/07/15 12:28:12;;;;;;;7.25;1.17;;;27.80;99.90;;;;;;5247033;28;20030;-73
2022/07/15 12:30:44;;;;;;;6.93;1.40;;;27.60;99.90;;;;;;5245649;28;20095;-74
2022/07/15 12:33:17;;;;;;;5.03;1.50;;;26.90;99.90;;;;;;5247021;28;20083;-74
2022/07/15 12:35:49;;;;;;;6.10;1.10;;;27.30;99.90;;;;;;5247063;28;20111;-72
2022/07/15 12:38:30;;;;;;;5.07;1.10;;;27.50;99.90;;;;;;5246895;28;20032;-77
2022/07/15 12:41:06;;;;;;;3.08;1.30;;;27.80;99.90;;;;;;5246971;28;20028;-73
2022/07/15 12:43:50;;;;;;;6.55;1.20;;;27.50;99.90;;;;;;5246841;28;20345;-72
2022/07/15 12:46:41;;;;;;;3.53;0.98;;;27.20;99.90;;;;;;5246946;28;20032;-73
2022/07/15 12:49:12;;;;;;;4.95;1.40;;;26.90;99.90;;;;;;5246729;28;20024;-73
2022/07/15 12:51:43;;;;;;;4.35;2.40;;;26.50;99.90;;;;;;5246718;28;20027;-73
2022/07/15 12:54:16;;;;;;;7.07;2.50;;;26.90;99.90;;;;;;5246698;28;20029;-72
2022/07/15 12:56:52;;;;;;;7.30;2.03;;;26.80;99.90;;;;;;5245429;28;20028;-72
2022/07/15 12:59:22;;;;;;;4.18;1.25;;;26.90;99.90;;;;;;5246878;28;20111;-79
2022/07/15 13:02:03;;;;;;;4.63;1.48;;;27.20;99.90;;;;;;5246518;28;20044;-72
2022/07/15 13:04:34;;;;;;;5.10;1.10;;;27.20;99.90;;;;;;5246749;28;20055;-73
2022/07/15 13:07:05;;;;;;;4.30;1.40;;;26.90;99.90;;;;;;5246659;28;20021;-72
2022/07/15 13:09:36;;;;;;;2.92;1.25;;;27.20;99.90;;;;;;5246656;28;20021;-72
2022/07/15 13:12:09;;;;;;;4.05;1.48;;;27.80;99.90;;;;;;5246533;28;20483;-79
2022/07/15 13:14:41;;;;;;;2.15;1.05;;;27.60;99.90;;;;;;5246556;28;20036;-78
2022/07/15 13:17:12;;;;;;;5.75;1.10;;;27.80;99.90;;;;;;5246649;28;20028;-72
2022/07/15 13:19:43;;;;;;;3.72;1.10;;;28.00;99.90;;;;;;5248490;28;20119;-72
2022/07/15 13:22:14;;;;;;;2.35;0.80;;;28.00;99.90;;;;;;5250110;28;20020;-72
2022/07/15 13:24:45;;;;;;;5.90;1.13;;;27.40;99.90;;;;;;5250303;28;20036;-73